Amery, Wisconsin
Current Conditions -  °F | °C
As of 9:15 PM on Thursday 18 Dec 2014 (Local Time) from KRNH Reporting Station
Overcast Overcast  
Wind Chill: -5°   Ceiling: 1100
Heat Index: -5°   Visibility: 10mi
Dew Point: -7°   Wind: 0mph
Humidity: 90%   Direction: NA
Pressure: 30.26"   Gusts: NA
Location:  45.31°N, 92.36°W
Report Text: KRNH 190315Z AUTO 00000KT 10SM OVC011 M05/M07 A3026 RMK AO2 T10541068
Loading
Personal Weather Stations






























Interactive Weather Map New forecast layout! Learn more

10-Day Weather Forecast

Advertisements
Track Severe Weather on mobile